Home Shopping, FL

9:03 PM EDT on July 05, 2015 (GMT -0400)
APRSWXNET | | Change Station
CLOSE
Current Station
Personal Weather Station
Location: Home Shopping, FL
Elevation: 111 ft
Nearby Weather Stations

Elev 111 ft 27.79 °N, 82.68 °W | Updated 38 minutes ago

Thunderstorm
Thunderstorm
80 °F
Feels Like 84 °F
N
3
Wind Variable Wind from SE
Gusts 10.0 mph

Today
High -- | Low -- °F
--% Chance of Precip.
Yesterday
High -- | Low -- °F
Precip. -- in
6:39 AM 8:30 PM
Waning Gibbous, 80% visible
Pressure 30.15 in
Visibility 10.0 miles
Clouds Few 1500 ft
Scattered Clouds 2000 ft
Scattered Clouds 11000 ft
Heat Index 84 °F
Dew Point 74 °F
Humidity 81%
Rainfall in
Snow Depth Not available.
UV 0 out of 12
Pollen 3.70 out of 12
Air Quality Not available.
Flu Activity Not available.
METAR KSPG 060053Z AUTO VRB06KT 10SM TS FEW015 SCT020 SCT110 27/23 A3015 RMK AO2 LTG DSNT ALQDS SLP208 T02670228

More Conditions Fewer Conditions

Pressure 30.15 in
Visibility 10.0 miles
Clouds Few 1500 ft
Scattered Clouds 2000 ft
Scattered Clouds 11000 ft
Heat Index 84 °F
Dew Point 74 °F
Humidity 81%
Rainfall in
Snow Depth Not available.
UV 0 out of 12
Pollen 3.70 out of 12
Air Quality Not available.
Flu Activity Not available.
METAR KSPG 060053Z AUTO VRB06KT 10SM TS FEW015 SCT020 SCT110 27/23 A3015 RMK AO2 LTG DSNT ALQDS SLP208 T02670228

More Conditions Fewer Conditions

10-Day Weather Forecast

×

Almanac

Astronomy

Jul. 05, 2015 Rise Set
Actual Time
Civil Twilight
Nautical Twilight
Astronomical Twilight
Moon
Length of Visible Light
Length of Day
Tomorrow will be .
, % of the Moon is Illuminated

Today's Extremes

State Highs State Lows

Community

WunderPhotos

Upload Photos

1,835,437 photos uploaded!

WunderBlogs® & News

Nearby

Air Quality

  Air Quality AQ Index Pollutant
Not available.

Snow Depth

Station Depth Elevation

Earthquake Activity

City Distance Mag. Time & Date
Minimum magnitude displayed is 2.5.

Coastal Water Temperatures

Place Temperature

Stations

Nearby Weather Stations

Station Location Temp. Windchill Dew Point Humidity Wind Precip. Elev Updated Type